sensor_id;sensor_type;location;lat;lon;timestamp;pressure;altitude;pressure_sealevel;temperature;humidity
77366;BME280;66430;50.182;11.704;2023-08-20T00:00:49;95166.77;;;27.12;34.49
77366;BME280;66430;50.182;11.704;2023-08-20T00:03:15;95167.44;;;27.32;34.61
77366;BME280;66430;50.182;11.704;2023-08-20T00:05:40;95168.31;;;27.04;34.75
77366;BME280;66430;50.182;11.704;2023-08-20T00:08:06;95168.98;;;27.32;34.65
77366;BME280;66430;50.182;11.704;2023-08-20T00:10:31;95168.34;;;27.01;34.77
77366;BME280;66430;50.182;11.704;2023-08-20T00:12:56;95168.16;;;27.08;34.69
77366;BME280;66430;50.182;11.704;2023-08-20T00:15:22;95168.94;;;27.60;34.81
77366;BME280;66430;50.182;11.704;2023-08-20T00:17:47;95173.83;;;27.03;34.97
77366;BME280;66430;50.182;11.704;2023-08-20T00:20:14;95172.55;;;27.18;35.19
77366;BME280;66430;50.182;11.704;2023-08-20T00:22:39;95172.90;;;27.17;35.20
77366;BME280;66430;50.182;11.704;2023-08-20T00:25:04;95173.30;;;27.21;35.12
77366;BME280;66430;50.182;11.704;2023-08-20T00:27:28;95175.71;;;27.15;35.33
77366;BME280;66430;50.182;11.704;2023-08-20T00:29:54;95176.06;;;26.83;35.73
77366;BME280;66430;50.182;11.704;2023-08-20T00:32:19;95176.95;;;27.26;35.19
77366;BME280;66430;50.182;11.704;2023-08-20T00:34:45;95176.00;;;26.92;35.15
77366;BME280;66430;50.182;11.704;2023-08-20T00:37:10;95177.03;;;27.05;34.95
77366;BME280;66430;50.182;11.704;2023-08-20T00:39:36;95173.96;;;27.34;34.85
77366;BME280;66430;50.182;11.704;2023-08-20T00:42:01;95174.20;;;27.11;34.86
77366;BME280;66430;50.182;11.704;2023-08-20T00:44:27;95176.32;;;27.35;34.96
77366;BME280;66430;50.182;11.704;2023-08-20T00:46:53;95176.98;;;27.36;35.04
77366;BME280;66430;50.182;11.704;2023-08-20T00:49:17;95178.22;;;27.04;35.17
77366;BME280;66430;50.182;11.704;2023-08-20T00:51:43;95178.23;;;26.95;35.18
77366;BME280;66430;50.182;11.704;2023-08-20T00:54:08;95181.18;;;27.37;34.88
77366;BME280;66430;50.182;11.704;2023-08-20T00:56:33;95183.45;;;27.12;35.04
77366;BME280;66430;50.182;11.704;2023-08-20T00:58:58;95182.92;;;27.18;35.09
77366;BME280;66430;50.182;11.704;2023-08-20T01:01:23;95183.69;;;27.13;35.14
77366;BME280;66430;50.182;11.704;2023-08-20T01:03:48;95178.73;;;27.18;35.02
77366;BME280;66430;50.182;11.704;2023-08-20T01:06:20;95177.59;;;26.94;34.87
77366;BME280;66430;50.182;11.704;2023-08-20T01:08:41;95178.75;;;27.10;35.06
77366;BME280;66430;50.182;11.704;2023-08-20T01:11:10;95181.55;;;26.88;35.07
77366;BME280;66430;50.182;11.704;2023-08-20T01:13:30;95182.52;;;27.41;35.03
77366;BME280;66430;50.182;11.704;2023-08-20T01:15:55;95182.26;;;27.14;35.05
77366;BME280;66430;50.182;11.704;2023-08-20T01:18:21;95186.89;;;26.92;35.22
77366;BME280;66430;50.182;11.704;2023-08-20T01:20:51;95185.38;;;27.14;35.36
77366;BME280;66430;50.182;11.704;2023-08-20T01:23:22;95183.10;;;26.96;35.62
77366;BME280;66430;50.182;11.704;2023-08-20T01:25:51;95185.34;;;27.27;35.52
77366;BME280;66430;50.182;11.704;2023-08-20T01:30:27;95184.76;;;27.07;35.44
77366;BME280;66430;50.182;11.704;2023-08-20T01:32:55;95184.93;;;26.81;35.58
77366;BME280;66430;50.182;11.704;2023-08-20T01:35:18;95187.01;;;27.28;35.67
77366;BME280;66430;50.182;11.704;2023-08-20T01:37:44;95188.34;;;26.76;35.68
77366;BME280;66430;50.182;11.704;2023-08-20T01:40:10;95188.65;;;27.01;35.68
77366;BME280;66430;50.182;11.704;2023-08-20T01:42:34;95191.92;;;26.70;35.76
77366;BME280;66430;50.182;11.704;2023-08-20T01:45:00;95191.64;;;26.99;35.63
77366;BME280;66430;50.182;11.704;2023-08-20T01:47:26;95195.99;;;27.33;35.39
77366;BME280;66430;50.182;11.704;2023-08-20T01:49:51;95196.59;;;27.29;35.48
77366;BME280;66430;50.182;11.704;2023-08-20T01:52:16;95191.86;;;26.45;36.07
77366;BME280;66430;50.182;11.704;2023-08-20T01:54:42;95195.25;;;26.86;35.83
77366;BME280;66430;50.182;11.704;2023-08-20T01:57:07;95200.20;;;26.94;35.77
77366;BME280;66430;50.182;11.704;2023-08-20T01:59:33;95202.47;;;27.12;35.78
77366;BME280;66430;50.182;11.704;2023-08-20T02:01:58;95202.64;;;26.75;35.65
77366;BME280;66430;50.182;11.704;2023-08-20T02:04:23;95202.63;;;27.16;35.74
77366;BME280;66430;50.182;11.704;2023-08-20T02:06:48;95204.06;;;27.02;35.62
77366;BME280;66430;50.182;11.704;2023-08-20T02:09:14;95203.21;;;27.31;35.73
77366;BME280;66430;50.182;11.704;2023-08-20T02:11:40;95202.28;;;27.12;35.71
77366;BME280;66430;50.182;11.704;2023-08-20T02:14:05;95201.74;;;27.26;36.01
77366;BME280;66430;50.182;11.704;2023-08-20T02:16:31;95200.06;;;26.95;36.45
77366;BME280;66430;50.182;11.704;2023-08-20T02:18:57;95197.84;;;26.61;36.59
77366;BME280;66430;50.182;11.704;2023-08-20T02:21:22;95196.67;;;26.49;36.81
77366;BME280;66430;50.182;11.704;2023-08-20T02:23:47;95198.02;;;26.39;36.98
77366;BME280;66430;50.182;11.704;2023-08-20T02:26:13;95202.37;;;26.33;37.02
77366;BME280;66430;50.182;11.704;2023-08-20T02:28:39;95202.42;;;26.41;37.21
77366;BME280;66430;50.182;11.704;2023-08-20T02:31:04;95204.13;;;26.41;37.25
77366;BME280;66430;50.182;11.704;2023-08-20T02:33:29;95207.01;;;26.67;37.19
77366;BME280;66430;50.182;11.704;2023-08-20T02:35:55;95208.51;;;26.46;37.15
77366;BME280;66430;50.182;11.704;2023-08-20T02:38:21;95210.50;;;26.46;37.14
77366;BME280;66430;50.182;11.704;2023-08-20T02:40:46;95212.30;;;26.34;37.24
77366;BME280;66430;50.182;11.704;2023-08-20T02:43:11;95208.34;;;26.39;37.05
77366;BME280;66430;50.182;11.704;2023-08-20T02:45:40;95209.93;;;26.36;37.05
77366;BME280;66430;50.182;11.704;2023-08-20T02:48:02;95210.07;;;26.41;36.93
77366;BME280;66430;50.182;11.704;2023-08-20T02:50:27;95213.62;;;26.41;36.65
77366;BME280;66430;50.182;11.704;2023-08-20T02:52:53;95212.22;;;26.21;36.59
77366;BME280;66430;50.182;11.704;2023-08-20T02:55:19;95210.40;;;26.46;36.42
77366;BME280;66430;50.182;11.704;2023-08-20T02:57:44;95212.20;;;26.45;36.35
77366;BME280;66430;50.182;11.704;2023-08-20T03:00:10;95217.47;;;26.37;36.14
77366;BME280;66430;50.182;11.704;2023-08-20T03:02:34;95214.61;;;26.39;36.47
77366;BME280;66430;50.182;11.704;2023-08-20T03:05:00;95217.42;;;26.37;36.60
77366;BME280;66430;50.182;11.704;2023-08-20T03:07:26;95216.16;;;26.35;36.71
77366;BME280;66430;50.182;11.704;2023-08-20T03:09:52;95218.41;;;26.28;36.71
77366;BME280;66430;50.182;11.704;2023-08-20T03:12:17;95217.75;;;26.25;36.62
77366;BME280;66430;50.182;11.704;2023-08-20T03:14:42;95215.88;;;26.53;36.44
77366;BME280;66430;50.182;11.704;2023-08-20T03:17:08;95218.74;;;26.20;36.56
77366;BME280;66430;50.182;11.704;2023-08-20T03:19:34;95216.35;;;26.52;36.44
77366;BME280;66430;50.182;11.704;2023-08-20T03:21:59;95214.79;;;26.20;36.65
77366;BME280;66430;50.182;11.704;2023-08-20T03:24:25;95216.27;;;26.12;36.71
77366;BME280;66430;50.182;11.704;2023-08-20T03:26:50;95219.02;;;26.45;36.88
77366;BME280;66430;50.182;11.704;2023-08-20T03:29:16;95219.72;;;26.08;37.05
77366;BME280;66430;50.182;11.704;2023-08-20T03:31:41;95219.26;;;26.11;36.94
77366;BME280;66430;50.182;11.704;2023-08-20T03:34:07;95223.39;;;25.91;37.28
77366;BME280;66430;50.182;11.704;2023-08-20T03:36:32;95225.57;;;25.49;37.62
77366;BME280;66430;50.182;11.704;2023-08-20T03:38:57;95230.63;;;25.74;37.64
77366;BME280;66430;50.182;11.704;2023-08-20T03:41:22;95232.57;;;25.95;37.76
77366;BME280;66430;50.182;11.704;2023-08-20T03:43:48;95232.11;;;25.67;37.86
77366;BME280;66430;50.182;11.704;2023-08-20T03:46:14;95232.47;;;25.84;38.01
77366;BME280;66430;50.182;11.704;2023-08-20T03:48:40;95235.84;;;25.93;37.84
77366;BME280;66430;50.182;11.704;2023-08-20T03:51:05;95238.36;;;25.57;37.99
77366;BME280;66430;50.182;11.704;2023-08-20T03:53:31;95242.81;;;25.87;37.81
77366;BME280;66430;50.182;11.704;2023-08-20T03:55:56;95246.26;;;25.85;37.93
77366;BME280;66430;50.182;11.704;2023-08-20T03:58:21;95249.86;;;25.88;37.89
77366;BME280;66430;50.182;11.704;2023-08-20T04:00:47;95246.76;;;25.81;38.04
77366;BME280;66430;50.182;11.704;2023-08-20T04:03:13;95246.89;;;25.66;37.99
77366;BME280;66430;50.182;11.704;2023-08-20T04:05:39;95248.54;;;25.80;38.24
77366;BME280;66430;50.182;11.704;2023-08-20T04:08:04;95248.22;;;25.83;38.12
77366;BME280;66430;50.182;11.704;2023-08-20T04:10:28;95248.00;;;25.54;38.28
77366;BME280;66430;50.182;11.704;2023-08-20T04:12:54;95248.52;;;26.01;37.98
77366;BME280;66430;50.182;11.704;2023-08-20T04:15:19;95247.15;;;25.81;38.40
77366;BME280;66430;50.182;11.704;2023-08-20T04:17:44;95241.49;;;25.73;38.53
77366;BME280;66430;50.182;11.704;2023-08-20T04:20:10;95243.32;;;25.67;38.23
77366;BME280;66430;50.182;11.704;2023-08-20T04:22:35;95245.24;;;25.80;38.33
77366;BME280;66430;50.182;11.704;2023-08-20T04:25:01;95249.75;;;25.75;38.39
77366;BME280;66430;50.182;11.704;2023-08-20T04:27:26;95249.33;;;25.92;38.44
77366;BME280;66430;50.182;11.704;2023-08-20T04:29:51;95249.89;;;25.88;38.89
77366;BME280;66430;50.182;11.704;2023-08-20T04:32:17;95250.51;;;25.60;39.18
77366;BME280;66430;50.182;11.704;2023-08-20T04:34:42;95249.18;;;25.33;39.22
77366;BME280;66430;50.182;11.704;2023-08-20T04:37:08;95252.37;;;25.77;39.47
77366;BME280;66430;50.182;11.704;2023-08-20T04:39:33;95251.38;;;25.73;39.72
77366;BME280;66430;50.182;11.704;2023-08-20T04:41:58;95252.14;;;25.73;39.98
77366;BME280;66430;50.182;11.704;2023-08-20T04:44:24;95254.02;;;25.78;39.96
77366;BME280;66430;50.182;11.704;2023-08-20T04:46:50;95254.57;;;25.56;40.02
77366;BME280;66430;50.182;11.704;2023-08-20T04:49:15;95253.37;;;25.45;40.25
77366;BME280;66430;50.182;11.704;2023-08-20T04:51:41;95254.84;;;25.26;40.95
77366;BME280;66430;50.182;11.704;2023-08-20T04:54:07;95252.24;;;24.81;42.52
77366;BME280;66430;50.182;11.704;2023-08-20T04:56:33;95259.32;;;25.40;41.51
77366;BME280;66430;50.182;11.704;2023-08-20T04:58:58;95263.60;;;25.16;41.11
77366;BME280;66430;50.182;11.704;2023-08-20T05:01:24;95265.19;;;25.68;41.10
77366;BME280;66430;50.182;11.704;2023-08-20T05:03:48;95266.10;;;25.42;41.22
77366;BME280;66430;50.182;11.704;2023-08-20T05:06:14;95263.06;;;25.03;41.53
77366;BME280;66430;50.182;11.704;2023-08-20T05:08:39;95265.47;;;25.76;41.24
77366;BME280;66430;50.182;11.704;2023-08-20T05:11:04;95267.42;;;25.57;41.41
77366;BME280;66430;50.182;11.704;2023-08-20T05:13:29;95264.10;;;25.29;41.55
77366;BME280;66430;50.182;11.704;2023-08-20T05:15:55;95266.40;;;25.72;41.74
77366;BME280;66430;50.182;11.704;2023-08-20T05:18:21;95265.91;;;25.42;42.18
77366;BME280;66430;50.182;11.704;2023-08-20T05:20:46;95265.98;;;25.42;41.95
77366;BME280;66430;50.182;11.704;2023-08-20T05:23:11;95265.33;;;25.51;42.23
77366;BME280;66430;50.182;11.704;2023-08-20T05:25:37;95262.45;;;25.25;42.57
77366;BME280;66430;50.182;11.704;2023-08-20T05:28:02;95262.74;;;25.00;42.68
77366;BME280;66430;50.182;11.704;2023-08-20T05:30:30;95261.23;;;24.87;43.24
77366;BME280;66430;50.182;11.704;2023-08-20T05:32:53;95259.60;;;24.36;43.61
77366;BME280;66430;50.182;11.704;2023-08-20T05:35:18;95263.26;;;24.55;43.61
77366;BME280;66430;50.182;11.704;2023-08-20T05:37:44;95263.86;;;25.04;43.38
77366;BME280;66430;50.182;11.704;2023-08-20T05:40:10;95263.49;;;24.55;44.46
77366;BME280;66430;50.182;11.704;2023-08-20T05:42:34;95261.64;;;24.86;44.36
77366;BME280;66430;50.182;11.704;2023-08-20T05:45:00;95263.72;;;24.79;43.94
77366;BME280;66430;50.182;11.704;2023-08-20T05:47:25;95263.72;;;24.61;44.11
77366;BME280;66430;50.182;11.704;2023-08-20T05:49:51;95266.59;;;24.49;44.70
77366;BME280;66430;50.182;11.704;2023-08-20T05:52:16;95269.55;;;24.22;44.71
77366;BME280;66430;50.182;11.704;2023-08-20T05:54:42;95272.32;;;24.43;45.32
77366;BME280;66430;50.182;11.704;2023-08-20T05:57:07;95274.28;;;24.06;45.50
77366;BME280;66430;50.182;11.704;2023-08-20T05:59:32;95273.57;;;24.26;45.95
77366;BME280;66430;50.182;11.704;2023-08-20T06:02:00;95271.31;;;24.35;45.90
77366;BME280;66430;50.182;11.704;2023-08-20T06:04:24;95271.77;;;23.75;46.90
77366;BME280;66430;50.182;11.704;2023-08-20T06:06:49;95269.68;;;23.91;46.95
77366;BME280;66430;50.182;11.704;2023-08-20T06:09:14;95271.35;;;24.00;46.94
77366;BME280;66430;50.182;11.704;2023-08-20T06:11:40;95275.58;;;23.95;47.26
77366;BME280;66430;50.182;11.704;2023-08-20T06:14:05;95277.11;;;23.78;46.91
77366;BME280;66430;50.182;11.704;2023-08-20T06:16:30;95275.42;;;23.72;47.63
77366;BME280;66430;50.182;11.704;2023-08-20T06:18:57;95273.28;;;23.89;47.33
77366;BME280;66430;50.182;11.704;2023-08-20T06:21:22;95274.72;;;24.34;46.92
77366;BME280;66430;50.182;11.704;2023-08-20T06:23:47;95268.54;;;24.03;46.73
77366;BME280;66430;50.182;11.704;2023-08-20T06:26:13;95271.48;;;24.12;46.96
77366;BME280;66430;50.182;11.704;2023-08-20T06:28:38;95272.56;;;24.47;45.98
77366;BME280;66430;50.182;11.704;2023-08-20T06:31:03;95276.42;;;24.70;45.49
77366;BME280;66430;50.182;11.704;2023-08-20T06:33:29;95278.54;;;24.48;45.71
77366;BME280;66430;50.182;11.704;2023-08-20T06:35:55;95282.00;;;24.33;46.30
77366;BME280;66430;50.182;11.704;2023-08-20T06:38:20;95282.36;;;24.09;46.05
77366;BME280;66430;50.182;11.704;2023-08-20T06:40:46;95282.99;;;24.03;46.40
77366;BME280;66430;50.182;11.704;2023-08-20T06:43:11;95280.36;;;23.96;47.84
77366;BME280;66430;50.182;11.704;2023-08-20T06:45:36;95281.68;;;24.13;46.23
77366;BME280;66430;50.182;11.704;2023-08-20T06:48:02;95279.95;;;24.20;47.18
77366;BME280;66430;50.182;11.704;2023-08-20T06:50:27;95280.41;;;24.07;46.74
77366;BME280;66430;50.182;11.704;2023-08-20T06:52:53;95282.94;;;24.30;46.76
77366;BME280;66430;50.182;11.704;2023-08-20T06:55:19;95283.54;;;24.27;47.04
77366;BME280;66430;50.182;11.704;2023-08-20T06:57:44;95288.26;;;24.25;46.91
77366;BME280;66430;50.182;11.704;2023-08-20T07:00:09;95289.62;;;24.38;46.25
77366;BME280;66430;50.182;11.704;2023-08-20T07:02:34;95284.63;;;24.94;45.64
77366;BME280;66430;50.182;11.704;2023-08-20T07:04:59;95289.26;;;24.96;45.50
77366;BME280;66430;50.182;11.704;2023-08-20T07:07:25;95288.71;;;24.61;46.57
77366;BME280;66430;50.182;11.704;2023-08-20T07:09:50;95289.05;;;24.87;46.21
77366;BME280;66430;50.182;11.704;2023-08-20T07:12:17;95287.35;;;24.84;46.84
77366;BME280;66430;50.182;11.704;2023-08-20T07:14:41;95293.56;;;25.01;46.08
77366;BME280;66430;50.182;11.704;2023-08-20T07:17:07;95295.03;;;25.38;45.10
77366;BME280;66430;50.182;11.704;2023-08-20T07:19:33;95297.71;;;25.24;44.91
77366;BME280;66430;50.182;11.704;2023-08-20T07:21:58;95296.38;;;24.91;45.34
77366;BME280;66430;50.182;11.704;2023-08-20T07:24:23;95300.61;;;25.25;44.80
77366;BME280;66430;50.182;11.704;2023-08-20T07:26:49;95299.80;;;24.90;45.74
77366;BME280;66430;50.182;11.704;2023-08-20T07:29:14;95302.42;;;25.29;45.34
77366;BME280;66430;50.182;11.704;2023-08-20T07:31:40;95304.64;;;25.79;45.21
77366;BME280;66430;50.182;11.704;2023-08-20T07:34:05;95305.73;;;25.62;45.15
77366;BME280;66430;50.182;11.704;2023-08-20T07:36:31;95305.63;;;25.27;45.78
77366;BME280;66430;50.182;11.704;2023-08-20T07:38:56;95307.50;;;25.36;45.50
77366;BME280;66430;50.182;11.704;2023-08-20T07:41:21;95304.80;;;25.84;45.26
77366;BME280;66430;50.182;11.704;2023-08-20T07:43:47;95303.99;;;25.94;44.11
77366;BME280;66430;50.182;11.704;2023-08-20T07:46:12;95303.71;;;25.93;44.09
77366;BME280;66430;50.182;11.704;2023-08-20T07:48:38;95300.51;;;25.61;44.88
77366;BME280;66430;50.182;11.704;2023-08-20T07:51:04;95299.88;;;25.95;43.80
77366;BME280;66430;50.182;11.704;2023-08-20T07:53:28;95300.06;;;26.40;43.68
77366;BME280;66430;50.182;11.704;2023-08-20T07:55:55;95301.75;;;26.15;44.12
77366;BME280;66430;50.182;11.704;2023-08-20T07:58:19;95299.53;;;26.41;44.80
77366;BME280;66430;50.182;11.704;2023-08-20T08:00:45;95304.66;;;25.80;43.83
77366;BME280;66430;50.182;11.704;2023-08-20T08:03:11;95306.42;;;26.26;44.14
77366;BME280;66430;50.182;11.704;2023-08-20T08:05:36;95302.72;;;26.65;43.54
77366;BME280;66430;50.182;11.704;2023-08-20T08:08:02;95303.91;;;26.63;44.46
77366;BME280;66430;50.182;11.704;2023-08-20T08:10:26;95304.55;;;26.77;44.30
77366;BME280;66430;50.182;11.704;2023-08-20T08:12:52;95307.59;;;26.70;43.26
77366;BME280;66430;50.182;11.704;2023-08-20T08:15:17;95309.32;;;26.78;43.64
77366;BME280;66430;50.182;11.704;2023-08-20T08:17:43;95310.98;;;26.33;43.06
77366;BME280;66430;50.182;11.704;2023-08-20T08:20:08;95312.11;;;27.05;42.95
77366;BME280;66430;50.182;11.704;2023-08-20T08:22:33;95314.06;;;26.50;43.53
77366;BME280;66430;50.182;11.704;2023-08-20T08:24:59;95309.62;;;26.99;43.12
77366;BME280;66430;50.182;11.704;2023-08-20T08:27:24;95309.51;;;27.14;42.27
77366;BME280;66430;50.182;11.704;2023-08-20T08:29:50;95316.63;;;26.91;42.75
77366;BME280;66430;50.182;11.704;2023-08-20T08:32:15;95315.42;;;27.25;42.12
77366;BME280;66430;50.182;11.704;2023-08-20T08:34:40;95318.64;;;27.75;42.14
77366;BME280;66430;50.182;11.704;2023-08-20T08:37:05;95320.77;;;27.90;41.41
77366;BME280;66430;50.182;11.704;2023-08-20T08:39:31;95317.90;;;27.33;42.25
77366;BME280;66430;50.182;11.704;2023-08-20T08:42:02;95325.51;;;26.94;42.59
77366;BME280;66430;50.182;11.704;2023-08-20T08:44:22;95320.45;;;27.34;42.55
77366;BME280;66430;50.182;11.704;2023-08-20T08:46:49;95323.88;;;27.77;42.05
77366;BME280;66430;50.182;11.704;2023-08-20T08:49:14;95326.89;;;28.04;40.75
77366;BME280;66430;50.182;11.704;2023-08-20T08:51:45;95328.99;;;28.59;39.53
77366;BME280;66430;50.182;11.704;2023-08-20T08:54:05;95330.73;;;28.19;41.59
77366;BME280;66430;50.182;11.704;2023-08-20T08:56:30;95326.46;;;27.66;41.74
77366;BME280;66430;50.182;11.704;2023-08-20T08:58:56;95329.05;;;27.86;41.61
77366;BME280;66430;50.182;11.704;2023-08-20T09:01:21;95331.97;;;28.29;41.54
77366;BME280;66430;50.182;11.704;2023-08-20T09:03:47;95328.80;;;28.30;41.11
77366;BME280;66430;50.182;11.704;2023-08-20T09:06:12;95332.32;;;27.59;41.97
77366;BME280;66430;50.182;11.704;2023-08-20T09:08:38;95327.95;;;28.24;40.48
77366;BME280;66430;50.182;11.704;2023-08-20T09:11:03;95330.05;;;28.71;39.49
77366;BME280;66430;50.182;11.704;2023-08-20T09:13:34;95333.16;;;28.46;39.83
77366;BME280;66430;50.182;11.704;2023-08-20T09:15:54;95336.12;;;29.01;39.85
77366;BME280;66430;50.182;11.704;2023-08-20T09:18:19;95338.86;;;29.39;39.59
77366;BME280;66430;50.182;11.704;2023-08-20T09:20:44;95343.51;;;28.82;38.61
77366;BME280;66430;50.182;11.704;2023-08-20T09:23:11;95340.07;;;29.49;38.12
77366;BME280;66430;50.182;11.704;2023-08-20T09:25:35;95343.68;;;28.58;40.43
77366;BME280;66430;50.182;11.704;2023-08-20T09:28:02;95345.54;;;29.31;38.88
77366;BME280;66430;50.182;11.704;2023-08-20T09:30:26;95347.44;;;29.06;37.83
77366;BME280;66430;50.182;11.704;2023-08-20T09:33:02;95350.94;;;29.18;37.67
77366;BME280;66430;50.182;11.704;2023-08-20T09:35:18;95352.91;;;29.02;37.91
77366;BME280;66430;50.182;11.704;2023-08-20T09:37:43;95357.97;;;28.94;38.08
77366;BME280;66430;50.182;11.704;2023-08-20T09:40:09;95356.70;;;29.47;37.69
77366;BME280;66430;50.182;11.704;2023-08-20T09:42:34;95356.39;;;29.56;38.04
77366;BME280;66430;50.182;11.704;2023-08-20T09:45:02;95359.08;;;29.51;37.91
77366;BME280;66430;50.182;11.704;2023-08-20T09:47:26;95355.38;;;29.60;37.98
77366;BME280;66430;50.182;11.704;2023-08-20T09:49:51;95356.77;;;29.48;36.93
77366;BME280;66430;50.182;11.704;2023-08-20T09:52:20;95355.21;;;29.53;38.10
77366;BME280;66430;50.182;11.704;2023-08-20T09:54:53;95352.57;;;29.68;37.14
77366;BME280;66430;50.182;11.704;2023-08-20T09:57:14;95350.01;;;29.28;36.69
77366;BME280;66430;50.182;11.704;2023-08-20T09:59:33;95351.80;;;29.82;37.11
77366;BME280;66430;50.182;11.704;2023-08-20T10:01:58;95355.80;;;29.79;37.12
77366;BME280;66430;50.182;11.704;2023-08-20T10:04:23;95359.38;;;29.41;37.86
77366;BME280;66430;50.182;11.704;2023-08-20T10:06:49;95361.06;;;29.75;37.86
77366;BME280;66430;50.182;11.704;2023-08-20T10:09:14;95357.65;;;29.47;37.53
77366;BME280;66430;50.182;11.704;2023-08-20T10:11:40;95356.21;;;29.51;36.31
77366;BME280;66430;50.182;11.704;2023-08-20T10:14:04;95353.18;;;29.80;36.30
77366;BME280;66430;50.182;11.704;2023-08-20T10:16:33;95352.02;;;29.99;36.51
77366;BME280;66430;50.182;11.704;2023-08-20T10:18:56;95350.15;;;29.61;37.97
77366;BME280;66430;50.182;11.704;2023-08-20T10:21:23;95346.22;;;29.77;36.31
77366;BME280;66430;50.182;11.704;2023-08-20T10:23:49;95346.03;;;30.01;36.23
77366;BME280;66430;50.182;11.704;2023-08-20T10:26:14;95351.40;;;29.75;38.39
77366;BME280;66430;50.182;11.704;2023-08-20T10:28:40;95344.36;;;29.97;38.72
77366;BME280;66430;50.182;11.704;2023-08-20T10:31:05;95340.29;;;29.72;39.29
77366;BME280;66430;50.182;11.704;2023-08-20T10:33:28;95339.09;;;30.47;37.22
77366;BME280;66430;50.182;11.704;2023-08-20T10:35:54;95338.51;;;30.33;37.03
77366;BME280;66430;50.182;11.704;2023-08-20T10:38:19;95338.08;;;29.86;36.77
77366;BME280;66430;50.182;11.704;2023-08-20T10:40:51;95341.21;;;29.41;39.29
77366;BME280;66430;50.182;11.704;2023-08-20T10:43:10;95341.04;;;29.43;38.64
77366;BME280;66430;50.182;11.704;2023-08-20T10:45:43;95341.77;;;29.38;38.18
77366;BME280;66430;50.182;11.704;2023-08-20T10:48:02;95337.27;;;30.35;35.74
77366;BME280;66430;50.182;11.704;2023-08-20T10:50:29;95337.44;;;30.13;35.52
77366;BME280;66430;50.182;11.704;2023-08-20T10:52:55;95335.24;;;30.12;36.91
77366;BME280;66430;50.182;11.704;2023-08-20T10:55:22;95333.04;;;29.58;36.85
77366;BME280;66430;50.182;11.704;2023-08-20T10:57:43;95331.53;;;29.90;36.05
77366;BME280;66430;50.182;11.704;2023-08-20T11:00:15;95328.61;;;30.38;35.78
77366;BME280;66430;50.182;11.704;2023-08-20T11:02:34;95323.64;;;30.87;34.21
77366;BME280;66430;50.182;11.704;2023-08-20T11:05:00;95318.93;;;30.99;35.73
77366;BME280;66430;50.182;11.704;2023-08-20T11:07:25;95319.83;;;30.42;35.26
77366;BME280;66430;50.182;11.704;2023-08-20T11:09:50;95322.07;;;30.55;34.88
77366;BME280;66430;50.182;11.704;2023-08-20T11:12:16;95319.05;;;30.12;35.53
77366;BME280;66430;50.182;11.704;2023-08-20T11:14:41;95315.65;;;30.73;34.78
77366;BME280;66430;50.182;11.704;2023-08-20T11:17:07;95311.54;;;30.16;36.72
77366;BME280;66430;50.182;11.704;2023-08-20T11:19:33;95310.26;;;30.11;35.36
77366;BME280;66430;50.182;11.704;2023-08-20T11:22:03;95306.12;;;30.68;34.96
77366;BME280;66430;50.182;11.704;2023-08-20T11:24:23;95305.57;;;30.45;34.96
77366;BME280;66430;50.182;11.704;2023-08-20T11:26:49;95307.67;;;30.26;34.70
77366;BME280;66430;50.182;11.704;2023-08-20T11:29:16;95314.17;;;31.31;34.14
77366;BME280;66430;50.182;11.704;2023-08-20T11:31:41;95314.63;;;31.61;34.27
77366;BME280;66430;50.182;11.704;2023-08-20T11:34:06;95315.65;;;31.40;34.84
77366;BME280;66430;50.182;11.704;2023-08-20T11:36:31;95313.32;;;31.83;33.03
77366;BME280;66430;50.182;11.704;2023-08-20T11:38:57;95312.06;;;31.96;32.96
77366;BME280;66430;50.182;11.704;2023-08-20T11:41:24;95308.26;;;31.60;33.12
77366;BME280;66430;50.182;11.704;2023-08-20T11:43:49;95302.69;;;32.05;32.01
77366;BME280;66430;50.182;11.704;2023-08-20T11:46:14;95302.76;;;31.84;33.24
77366;BME280;66430;50.182;11.704;2023-08-20T11:48:38;95303.40;;;32.31;31.80
77366;BME280;66430;50.182;11.704;2023-08-20T11:51:04;95298.16;;;32.52;29.59
77366;BME280;66430;50.182;11.704;2023-08-20T11:53:29;95295.80;;;32.83;28.75
77366;BME280;66430;50.182;11.704;2023-08-20T11:55:55;95291.62;;;32.47;30.81
77366;BME280;66430;50.182;11.704;2023-08-20T11:58:20;95294.97;;;32.45;30.50
77366;BME280;66430;50.182;11.704;2023-08-20T12:00:49;95294.29;;;32.84;31.29
77366;BME280;66430;50.182;11.704;2023-08-20T12:03:11;95293.36;;;32.94;31.39
77366;BME280;66430;50.182;11.704;2023-08-20T12:05:37;95294.20;;;33.16;30.00
77366;BME280;66430;50.182;11.704;2023-08-20T12:08:04;95299.43;;;32.50;27.78
77366;BME280;66430;50.182;11.704;2023-08-20T12:10:30;95301.48;;;32.32;28.49
77366;BME280;66430;50.182;11.704;2023-08-20T12:12:55;95299.33;;;33.32;28.30
77366;BME280;66430;50.182;11.704;2023-08-20T12:15:19;95293.55;;;33.00;28.67
77366;BME280;66430;50.182;11.704;2023-08-20T12:17:47;95293.52;;;33.25;26.88
77366;BME280;66430;50.182;11.704;2023-08-20T12:20:10;95292.24;;;32.88;26.82
77366;BME280;66430;50.182;11.704;2023-08-20T12:22:35;95293.49;;;33.11;28.12
77366;BME280;66430;50.182;11.704;2023-08-20T12:25:00;95285.58;;;33.11;27.51
77366;BME280;66430;50.182;11.704;2023-08-20T12:27:25;95285.16;;;33.11;27.55
77366;BME280;66430;50.182;11.704;2023-08-20T12:29:50;95283.13;;;33.28;27.80
77366;BME280;66430;50.182;11.704;2023-08-20T12:32:16;95283.51;;;32.79;26.95
77366;BME280;66430;50.182;11.704;2023-08-20T12:34:41;95283.69;;;33.07;26.06
77366;BME280;66430;50.182;11.704;2023-08-20T12:37:06;95281.94;;;32.70;26.06
77366;BME280;66430;50.182;11.704;2023-08-20T12:39:32;95281.68;;;32.79;25.59
77366;BME280;66430;50.182;11.704;2023-08-20T12:41:57;95279.61;;;32.67;27.62